createdAt,value
2022-11-20T00:01:40.009Z,6.63
2022-11-20T00:04:27.492Z,7.43
2022-11-20T00:07:14.957Z,5.70
2022-11-20T00:10:02.811Z,4.23
2022-11-20T00:12:50.276Z,5.47
2022-11-20T00:15:37.711Z,4.97
2022-11-20T00:18:25.665Z,5.77
2022-11-20T00:21:20.480Z,7.37
2022-11-20T00:24:11.647Z,5.57
2022-11-20T00:26:59.163Z,4.43
2022-11-20T00:29:46.711Z,8.20
2022-11-20T00:32:34.200Z,5.83
2022-11-20T00:35:21.636Z,6.03
2022-11-20T00:38:09.010Z,4.37
2022-11-20T00:41:02.714Z,5.40
2022-11-20T00:43:52.302Z,6.13
2022-11-20T00:46:39.780Z,5.37
2022-11-20T00:49:27.247Z,5.33
2022-11-20T00:52:14.721Z,5.43
2022-11-20T00:55:02.290Z,7.43
2022-11-20T00:57:49.745Z,4.77
2022-11-20T01:00:37.195Z,7.30
2022-11-20T01:03:27.196Z,6.80
2022-11-20T01:06:18.602Z,5.53
2022-11-20T01:09:13.167Z,5.17
2022-11-20T01:12:01.386Z,7.93
2022-11-20T01:14:49.281Z,8.87
2022-11-20T01:17:36.770Z,6.33
2022-11-20T01:20:24.220Z,7.63
2022-11-20T01:23:11.637Z,6.97
2022-11-20T01:26:03.472Z,6.47
2022-11-20T01:28:52.192Z,5.67
2022-11-20T01:31:39.610Z,7.60
2022-11-20T01:34:27.275Z,6.93
2022-11-20T01:37:14.767Z,7.23
2022-11-20T01:40:02.350Z,6.70
2022-11-20T01:43:24.619Z,7.80
2022-11-20T01:46:20.956Z,5.43
2022-11-20T01:49:42.103Z,5.47
2022-11-20T01:52:40.801Z,5.37
2022-11-20T01:55:41.009Z,6.47
2022-11-20T01:58:36.266Z,4.20
2022-11-20T02:01:23.822Z,5.23
2022-11-20T02:04:13.387Z,6.13
2022-11-20T02:07:06.601Z,7.63
2022-11-20T02:09:58.553Z,5.67
2022-11-20T02:13:05.323Z,5.73
2022-11-20T02:15:53.781Z,6.13
2022-11-20T02:18:42.589Z,4.53
2022-11-20T02:21:57.491Z,7.57
2022-11-20T02:24:47.486Z,6.57
2022-11-20T02:27:35.721Z,5.67
2022-11-20T02:30:23.159Z,6.90
2022-11-20T02:33:10.722Z,6.67
2022-11-20T02:35:58.180Z,6.63
2022-11-20T02:38:45.746Z,7.23
2022-11-20T02:41:39.530Z,5.57
2022-11-20T02:44:27.001Z,6.43
2022-11-20T02:47:14.431Z,6.80
2022-11-20T02:50:01.937Z,5.73
2022-11-20T02:52:49.386Z,6.10
2022-11-20T02:55:37.833Z,5.77
2022-11-20T02:58:25.450Z,7.10
2022-11-20T03:01:13.042Z,5.80
2022-11-20T03:04:00.601Z,6.70
2022-11-20T03:06:48.075Z,5.90
2022-11-20T03:09:35.682Z,6.80
2022-11-20T03:12:23.201Z,5.50
2022-11-20T03:15:11.557Z,5.07
2022-11-20T03:17:59.667Z,7.00
2022-11-20T03:20:47.126Z,6.83
2022-11-20T03:23:35.601Z,9.07
2022-11-20T03:26:27.731Z,4.90
2022-11-20T03:29:15.331Z,5.90
2022-11-20T03:32:02.861Z,5.33
2022-11-20T03:34:50.295Z,8.60
2022-11-20T03:37:37.777Z,6.00
2022-11-20T03:40:25.350Z,6.47
2022-11-20T03:43:12.763Z,7.80
2022-11-20T03:46:01.096Z,7.37
2022-11-20T03:48:51.835Z,6.90
2022-11-20T03:51:39.841Z,6.23
2022-11-20T03:54:27.390Z,8.03
2022-11-20T03:57:14.866Z,5.03
2022-11-20T04:00:02.805Z,6.63
2022-11-20T04:02:50.286Z,8.03
2022-11-20T04:05:37.746Z,8.13
2022-11-20T04:08:25.231Z,4.80
2022-11-20T04:11:23.611Z,7.13
2022-11-20T04:14:16.896Z,6.63
2022-11-20T04:17:05.326Z,7.20
2022-11-20T04:19:52.800Z,6.73
2022-11-20T04:22:40.230Z,6.57
2022-11-20T04:25:27.712Z,5.73
2022-11-20T04:28:15.141Z,5.90
2022-11-20T04:31:11.015Z,4.10
2022-11-20T04:34:08.227Z,6.80
2022-11-20T04:36:55.771Z,5.17
2022-11-20T04:39:43.411Z,7.47
2022-11-20T04:42:30.986Z,5.47
2022-11-20T04:45:18.565Z,6.47
2022-11-20T04:48:06.393Z,7.50
2022-11-20T04:50:55.218Z,5.80
2022-11-20T04:53:43.661Z,6.57
2022-11-20T04:56:31.131Z,6.23
2022-11-20T04:59:18.847Z,6.57
2022-11-20T05:02:06.631Z,7.30
2022-11-20T05:04:54.191Z,6.00
2022-11-20T05:07:41.759Z,5.70
2022-11-20T05:10:29.740Z,7.27
2022-11-20T05:13:17.246Z,6.47
2022-11-20T05:16:17.605Z,5.80
2022-11-20T05:19:05.330Z,5.53
2022-11-20T05:21:52.867Z,5.00
2022-11-20T05:24:40.290Z,5.40
2022-11-20T05:27:27.847Z,6.17
2022-11-20T05:30:15.901Z,5.17
2022-11-20T05:33:03.430Z,4.80
2022-11-20T05:35:50.902Z,6.50
2022-11-20T05:38:39.186Z,7.00
2022-11-20T05:41:26.901Z,6.73
2022-11-20T05:44:14.625Z,6.40
2022-11-20T05:47:02.084Z,6.27
2022-11-20T05:49:49.512Z,7.50
2022-11-20T05:52:37.028Z,6.87
2022-11-20T05:55:24.561Z,7.73
2022-11-20T05:58:12.056Z,6.37
2022-11-20T06:01:09.751Z,5.23
2022-11-20T06:03:57.306Z,5.97
2022-11-20T06:06:44.861Z,5.90
2022-11-20T06:09:32.400Z,5.60
2022-11-20T06:12:20.035Z,5.27
2022-11-20T06:15:08.701Z,4.93
2022-11-20T06:17:56.905Z,6.73
2022-11-20T06:20:44.653Z,8.23
2022-11-20T06:23:35.156Z,5.07
2022-11-20T06:26:26.610Z,4.37
2022-11-20T06:29:14.133Z,6.67
2022-11-20T06:32:02.271Z,6.87
2022-11-20T06:34:49.850Z,6.17
2022-11-20T06:37:37.340Z,5.73
2022-11-20T06:40:24.865Z,7.47
2022-11-20T06:43:12.352Z,5.30
2022-11-20T06:46:00.932Z,4.90
2022-11-20T06:48:50.600Z,5.23
2022-11-20T06:51:38.096Z,6.83
2022-11-20T06:54:25.530Z,5.13
2022-11-20T06:57:13.066Z,5.63
2022-11-20T07:00:00.496Z,5.73
2022-11-20T07:02:47.982Z,6.07
2022-11-20T07:05:36.690Z,5.50
2022-11-20T07:08:25.431Z,5.13
2022-11-20T07:11:13.910Z,4.60
2022-11-20T07:14:01.381Z,5.90
2022-11-20T07:16:48.807Z,7.97
2022-11-20T07:19:36.331Z,5.87
2022-11-20T07:22:23.826Z,7.17
2022-11-20T07:25:12.147Z,6.17
2022-11-20T07:28:01.171Z,6.13
2022-11-20T07:30:54.027Z,7.10
2022-11-20T07:33:41.431Z,6.40
2022-11-20T07:36:28.872Z,7.60
2022-11-20T07:39:16.342Z,6.43
2022-11-20T07:42:03.922Z,6.57
2022-11-20T07:44:51.346Z,8.97
2022-11-20T07:47:38.851Z,6.63
2022-11-20T07:50:26.392Z,5.97
2022-11-20T07:53:14.930Z,6.93
2022-11-20T07:56:04.276Z,5.77
2022-11-20T07:58:51.867Z,6.33
2022-11-20T08:01:40.901Z,6.93
2022-11-20T08:04:28.426Z,6.37
2022-11-20T08:07:15.934Z,6.17
2022-11-20T08:10:03.780Z,6.93
2022-11-20T08:13:12.072Z,5.60
2022-11-20T08:15:59.498Z,6.43
2022-11-20T08:18:47.077Z,5.63
2022-11-20T08:21:38.206Z,7.93
2022-11-20T08:24:27.497Z,6.53
2022-11-20T08:27:15.131Z,6.33
2022-11-20T08:30:02.622Z,7.07
2022-11-20T08:32:50.116Z,6.97
2022-11-20T08:35:39.329Z,6.37
2022-11-20T08:38:26.916Z,6.97
2022-11-20T08:41:27.832Z,7.17
2022-11-20T08:44:15.331Z,7.83
2022-11-20T08:47:02.922Z,6.00
2022-11-20T08:49:50.407Z,7.73
2022-11-20T08:52:39.921Z,7.13
2022-11-20T08:55:27.480Z,6.10
2022-11-20T08:58:14.936Z,6.73
2022-11-20T09:01:02.929Z,7.27
2022-11-20T09:03:51.066Z,9.40
2022-11-20T09:06:38.537Z,8.70
2022-11-20T09:09:26.035Z,6.30
2022-11-20T09:12:13.662Z,6.90
2022-11-20T09:15:01.127Z,7.33
2022-11-20T09:18:05.807Z,9.10
2022-11-20T09:20:56.999Z,8.73
2022-11-20T09:23:44.902Z,10.13
2022-11-20T09:26:32.454Z,6.97
2022-11-20T09:29:20.245Z,9.07
2022-11-20T09:32:08.046Z,7.10
2022-11-20T09:34:55.435Z,7.03
2022-11-20T09:37:42.991Z,8.53
2022-11-20T09:40:31.106Z,7.63
2022-11-20T09:43:53.931Z,6.73
2022-11-20T09:46:47.641Z,7.80
2022-11-20T09:50:22.571Z,6.63
2022-11-20T09:53:27.211Z,7.10
2022-11-20T09:56:18.272Z,7.63
2022-11-20T09:59:51.697Z,6.77
2022-11-20T10:03:02.428Z,7.30
2022-11-20T10:05:56.146Z,7.83
2022-11-20T10:09:17.851Z,6.47
2022-11-20T10:12:31.131Z,5.70
2022-11-20T10:15:33.856Z,7.03
2022-11-20T10:19:29.060Z,6.10
2022-11-20T10:22:46.058Z,6.40
2022-11-20T10:26:04.636Z,6.57
2022-11-20T10:29:09.121Z,6.43
2022-11-20T10:32:04.026Z,6.43
2022-11-20T10:35:14.826Z,6.43
2022-11-20T10:38:10.617Z,7.30
2022-11-20T10:41:25.502Z,6.87
2022-11-20T10:44:47.826Z,6.03
2022-11-20T10:47:38.102Z,4.70
2022-11-20T10:50:26.757Z,6.50
2022-11-20T10:53:17.229Z,5.17
2022-11-20T10:56:31.748Z,6.17
2022-11-20T10:59:49.694Z,6.57
2022-11-20T11:02:43.546Z,5.50
2022-11-20T11:05:55.171Z,5.33
2022-11-20T11:08:44.977Z,5.73
2022-11-20T11:11:34.907Z,5.67
2022-11-20T11:14:25.667Z,6.50
2022-11-20T11:17:48.075Z,6.93
2022-11-20T11:20:35.618Z,7.23
2022-11-20T11:23:41.151Z,7.03
2022-11-20T11:26:29.562Z,7.47
2022-11-20T11:29:19.547Z,6.67
2022-11-20T11:32:20.044Z,8.70
2022-11-20T11:35:20.497Z,7.60
2022-11-20T11:38:16.593Z,7.03
2022-11-20T11:41:07.517Z,8.50
2022-11-20T11:44:33.574Z,9.90
2022-11-20T11:47:33.531Z,7.50
2022-11-20T11:50:30.267Z,9.07
2022-11-20T11:53:24.421Z,6.10
2022-11-20T11:56:15.841Z,7.47
2022-11-20T11:59:11.848Z,8.43
2022-11-20T12:02:05.156Z,7.33
2022-11-20T12:05:04.287Z,8.37
2022-11-20T12:08:14.816Z,7.87
2022-11-20T12:11:12.942Z,6.20
2022-11-20T12:14:09.152Z,7.80
2022-11-20T12:16:58.657Z,7.83
2022-11-20T12:19:46.245Z,8.57
2022-11-20T12:23:10.962Z,8.90
2022-11-20T12:26:26.839Z,6.80
2022-11-20T12:30:01.974Z,6.70
2022-11-20T12:33:23.864Z,8.17
2022-11-20T12:36:49.047Z,6.77
2022-11-20T12:39:43.409Z,5.80
2022-11-20T12:43:25.973Z,7.80
2022-11-20T12:46:57.119Z,6.77
2022-11-20T12:50:23.111Z,8.60
2022-11-20T12:53:42.307Z,5.73
2022-11-20T12:57:08.913Z,9.27
2022-11-20T13:00:15.072Z,6.73
2022-11-20T13:03:40.305Z,5.87
2022-11-20T13:06:28.276Z,8.07
2022-11-20T13:09:24.397Z,7.03
2022-11-20T13:12:47.041Z,7.17
2022-11-20T13:16:19.318Z,7.63
2022-11-20T13:19:12.521Z,7.50
2022-11-20T13:22:00.084Z,8.47
2022-11-20T13:24:53.117Z,6.30
2022-11-20T13:27:50.147Z,10.03
2022-11-20T13:30:51.671Z,7.33
2022-11-20T13:33:40.592Z,8.90
2022-11-20T13:36:31.450Z,10.83
2022-11-20T13:39:38.172Z,8.27
2022-11-20T13:42:29.395Z,7.30
2022-11-20T13:45:32.402Z,9.50
2022-11-20T13:48:28.250Z,8.50
2022-11-20T13:51:46.872Z,8.27
2022-11-20T13:55:13.826Z,9.23
2022-11-20T13:58:21.932Z,9.30
2022-11-20T14:01:21.164Z,8.00
2022-11-20T14:04:15.236Z,9.17
2022-11-20T14:07:07.768Z,8.33
2022-11-20T14:09:58.147Z,9.63
2022-11-20T14:12:45.706Z,7.77
2022-11-20T14:15:39.249Z,9.23
2022-11-20T14:18:29.421Z,8.83
2022-11-20T14:21:30.520Z,8.70
2022-11-20T14:24:24.528Z,9.90
2022-11-20T14:27:20.681Z,9.10
2022-11-20T14:30:16.147Z,9.17
2022-11-20T14:33:06.343Z,8.63
2022-11-20T14:35:59.114Z,7.30
2022-11-20T14:38:47.723Z,7.93
2022-11-20T14:41:35.230Z,9.73
2022-11-20T14:44:38.769Z,10.10
2022-11-20T14:47:32.517Z,6.57
2022-11-20T14:50:30.711Z,8.67
2022-11-20T14:53:26.001Z,9.43
2022-11-20T14:56:13.422Z,8.97
2022-11-20T14:59:00.959Z,10.13
2022-11-20T15:02:06.656Z,10.83
2022-11-20T15:05:05.487Z,11.13
2022-11-20T15:08:14.316Z,9.90
2022-11-20T15:11:02.845Z,8.53
2022-11-20T15:13:50.432Z,9.50
2022-11-20T15:16:38.042Z,8.47
2022-11-20T15:19:27.932Z,9.23
2022-11-20T15:22:17.237Z,7.70
2022-11-20T15:25:18.041Z,10.30
2022-11-20T15:28:18.818Z,6.73
2022-11-20T15:31:07.659Z,7.87
2022-11-20T15:33:55.167Z,7.83
2022-11-20T15:36:44.352Z,11.07
2022-11-20T15:39:31.841Z,8.70
2022-11-20T15:42:19.272Z,10.43
2022-11-20T15:45:07.083Z,8.53
2022-11-20T15:47:54.590Z,7.87
2022-11-20T15:51:03.861Z,8.33
2022-11-20T15:53:51.364Z,9.10
2022-11-20T15:56:38.953Z,9.17
2022-11-20T15:59:26.338Z,11.57
2022-11-20T16:02:19.397Z,8.33
2022-11-20T16:05:13.495Z,8.73
2022-11-20T16:08:00.997Z,6.60
2022-11-20T16:10:48.581Z,9.87
2022-11-20T16:13:54.972Z,7.80
2022-11-20T16:16:44.197Z,8.30
2022-11-20T16:19:31.686Z,11.27
2022-11-20T16:22:19.382Z,8.50
2022-11-20T16:25:07.201Z,7.47
2022-11-20T16:27:54.682Z,8.33
2022-11-20T16:30:42.263Z,9.63
2022-11-20T16:33:29.701Z,10.37
2022-11-20T16:36:18.460Z,7.87
2022-11-20T16:39:06.305Z,8.83
2022-11-20T16:41:53.743Z,10.93
2022-11-20T16:44:41.191Z,8.87
2022-11-20T16:47:28.745Z,8.03
2022-11-20T16:50:16.373Z,8.47
2022-11-20T16:53:03.851Z,8.17
2022-11-20T16:55:51.281Z,8.43
2022-11-20T16:58:38.805Z,7.63
2022-11-20T17:01:29.001Z,7.13
2022-11-20T17:04:17.669Z,8.47
2022-11-20T17:07:08.123Z,7.43
2022-11-20T17:09:56.061Z,6.80
2022-11-20T17:12:44.726Z,6.67
2022-11-20T17:15:32.321Z,8.03
2022-11-20T17:18:20.170Z,7.60
2022-11-20T17:21:08.261Z,8.30
2022-11-20T17:23:55.751Z,8.77
2022-11-20T17:26:45.225Z,6.77
2022-11-20T17:29:34.594Z,7.37
2022-11-20T17:32:24.186Z,7.67
2022-11-20T17:35:11.631Z,5.73
2022-11-20T17:37:59.177Z,6.80
2022-11-20T17:40:46.698Z,8.10
2022-11-20T17:43:37.265Z,6.10
2022-11-20T17:46:29.625Z,6.70
2022-11-20T17:49:22.791Z,7.90
2022-11-20T17:52:11.602Z,9.03
2022-11-20T17:54:59.124Z,8.80
2022-11-20T17:57:52.988Z,7.43
2022-11-20T18:00:40.521Z,6.57
2022-11-20T18:03:28.092Z,7.37
2022-11-20T18:06:22.518Z,7.53
2022-11-20T18:09:11.540Z,5.03
2022-11-20T18:11:59.076Z,7.03
2022-11-20T18:14:49.157Z,5.37
2022-11-20T18:17:36.837Z,7.67
2022-11-20T18:20:30.199Z,5.20
2022-11-20T18:23:19.567Z,4.80
2022-11-20T18:26:07.232Z,5.43
2022-11-20T18:28:55.513Z,4.73
2022-11-20T18:31:42.948Z,4.57
2022-11-20T18:34:30.776Z,4.97
2022-11-20T18:37:19.270Z,3.73
2022-11-20T18:40:07.882Z,5.07
2022-11-20T18:43:14.112Z,3.83
2022-11-20T18:46:05.246Z,3.37
2022-11-20T18:48:52.731Z,3.47
2022-11-20T18:51:41.787Z,4.23
2022-11-20T18:54:29.297Z,3.77
2022-11-20T18:57:22.381Z,4.07
2022-11-20T19:00:11.254Z,2.87
2022-11-20T19:02:58.926Z,3.03
2022-11-20T19:05:46.511Z,2.40
2022-11-20T19:08:36.961Z,2.03
2022-11-20T19:11:24.427Z,2.37
2022-11-20T19:14:11.912Z,1.50
2022-11-20T19:16:59.501Z,1.60
2022-11-20T19:19:47.618Z,1.30
2022-11-20T19:22:35.286Z,1.47
2022-11-20T19:25:22.765Z,1.37
2022-11-20T19:28:10.231Z,1.30
2022-11-20T19:31:07.860Z,1.30
2022-11-20T19:34:02.114Z,1.50
2022-11-20T19:36:49.711Z,1.30
2022-11-20T19:39:37.352Z,1.23
2022-11-20T19:42:24.822Z,1.37
2022-11-20T19:45:12.228Z,1.10
2022-11-20T19:48:07.797Z,0.97
2022-11-20T19:50:55.866Z,1.20
2022-11-20T19:53:44.303Z,4.27
2022-11-20T19:56:33.753Z,4.77
2022-11-20T19:59:21.521Z,4.60
2022-11-20T20:02:12.121Z,2.80
2022-11-20T20:04:59.692Z,2.30
2022-11-20T20:07:47.226Z,2.07
2022-11-20T20:10:34.765Z,1.30
2022-11-20T20:13:22.279Z,1.23
2022-11-20T20:16:11.916Z,1.30
2022-11-20T20:19:01.927Z,1.00
2022-11-20T20:21:50.172Z,1.93
2022-11-20T20:24:37.676Z,1.50
2022-11-20T20:27:25.306Z,1.57
2022-11-20T20:30:13.345Z,1.93
2022-11-20T20:33:01.177Z,1.50
2022-11-20T20:35:48.899Z,1.17
2022-11-20T20:38:36.821Z,1.00
2022-11-20T20:41:25.139Z,1.27
2022-11-20T20:44:31.516Z,1.27
2022-11-20T20:47:19.111Z,1.33
2022-11-20T20:50:12.410Z,1.30
2022-11-20T20:52:59.941Z,1.60
2022-11-20T20:56:02.066Z,1.30
2022-11-20T20:58:49.580Z,1.33
2022-11-20T21:01:37.102Z,1.33
2022-11-20T21:04:24.807Z,1.27
2022-11-20T21:07:12.284Z,1.20
2022-11-20T21:09:59.966Z,1.47
2022-11-20T21:12:47.396Z,1.30
2022-11-20T21:15:34.881Z,1.60
2022-11-20T21:18:24.391Z,1.70
2022-11-20T21:21:35.726Z,1.67
2022-11-20T21:24:23.893Z,2.20
2022-11-20T21:27:11.592Z,1.87
2022-11-20T21:29:59.071Z,2.30
2022-11-20T21:32:47.573Z,2.40
2022-11-20T21:35:35.406Z,1.77
2022-11-20T21:38:22.826Z,1.47
2022-11-20T21:41:12.716Z,1.00
2022-11-20T21:47:12.648Z,2.00
2022-11-20T21:50:00.197Z,1.70
2022-11-20T21:52:47.662Z,2.10
2022-11-20T21:55:35.144Z,1.17
2022-11-20T21:58:23.006Z,1.23
2022-11-20T22:01:10.480Z,1.40
2022-11-20T22:04:01.883Z,1.10
2022-11-20T22:06:49.508Z,1.70
2022-11-20T22:09:37.006Z,0.90
2022-11-20T22:12:24.501Z,1.13
2022-11-20T22:15:12.021Z,1.23
2022-11-20T22:18:14.885Z,1.60
2022-11-20T22:21:07.262Z,1.60
2022-11-20T22:23:55.806Z,1.93
2022-11-20T22:26:43.945Z,2.53
2022-11-20T22:29:31.841Z,3.63
2022-11-20T22:32:19.287Z,1.30
2022-11-20T22:35:07.092Z,2.10
2022-11-20T22:37:54.646Z,1.87
2022-11-20T22:40:44.121Z,1.70
2022-11-20T22:43:32.282Z,1.53
2022-11-20T22:46:20.527Z,1.70
2022-11-20T22:49:09.260Z,1.50
2022-11-20T22:51:56.671Z,1.60
2022-11-20T22:54:44.075Z,1.77
2022-11-20T22:57:32.267Z,1.93
2022-11-20T23:00:20.187Z,1.20
2022-11-20T23:03:08.969Z,1.70
2022-11-20T23:06:02.408Z,1.30
2022-11-20T23:08:50.948Z,1.43
2022-11-20T23:11:38.901Z,1.27
2022-11-20T23:14:27.869Z,1.60
2022-11-20T23:17:15.626Z,1.60
2022-11-20T23:20:03.195Z,2.17
2022-11-20T23:22:50.673Z,1.60
2022-11-20T23:25:38.161Z,1.53
2022-11-20T23:28:25.597Z,1.70
2022-11-20T23:31:15.513Z,2.07
2022-11-20T23:34:03.479Z,1.27
2022-11-20T23:36:50.922Z,0.97
2022-11-20T23:39:38.426Z,1.40
2022-11-20T23:42:25.992Z,1.40
2022-11-20T23:45:13.531Z,1.40
2022-11-20T23:48:00.922Z,1.67
2022-11-20T23:50:49.157Z,1.10
2022-11-20T23:53:36.718Z,1.03
2022-11-20T23:56:24.177Z,1.17
2022-11-20T23:59:11.601Z,1.10
